sensor_id;sensor_type;location;lat;lon;timestamp;P1;durP1;ratioP1;P2;durP2;ratioP2
31390;SDS011;18022;45.492;11.548;2022-09-09T00:10:31;6.18;;;2.40;;
31390;SDS011;18022;45.492;11.548;2022-09-09T00:15:48;4.68;;;3.00;;
31390;SDS011;18022;45.492;11.548;2022-09-09T00:18:31;5.22;;;2.72;;
31390;SDS011;18022;45.492;11.548;2022-09-09T00:21:14;9.55;;;3.28;;
31390;SDS011;18022;45.492;11.548;2022-09-09T00:23:48;7.60;;;3.53;;
31390;SDS011;18022;45.492;11.548;2022-09-09T00:29:18;7.10;;;2.90;;
31390;SDS011;18022;45.492;11.548;2022-09-09T00:31:54;5.70;;;2.60;;
31390;SDS011;18022;45.492;11.548;2022-09-09T00:34:25;7.82;;;2.92;;
31390;SDS011;18022;45.492;11.548;2022-09-09T00:36:53;9.25;;;3.10;;
31390;SDS011;18022;45.492;11.548;2022-09-09T00:57:38;6.00;;;3.38;;
31390;SDS011;18022;45.492;11.548;2022-09-09T01:08:28;8.02;;;3.00;;
31390;SDS011;18022;45.492;11.548;2022-09-09T01:11:21;6.00;;;2.75;;
31390;SDS011;18022;45.492;11.548;2022-09-09T01:17:46;10.35;;;3.00;;
31390;SDS011;18022;45.492;11.548;2022-09-09T01:28:10;4.22;;;1.98;;
31390;SDS011;18022;45.492;11.548;2022-09-09T01:30:44;2.47;;;2.20;;
31390;SDS011;18022;45.492;11.548;2022-09-09T01:33:13;3.47;;;1.55;;
31390;SDS011;18022;45.492;11.548;2022-09-09T01:35:57;6.57;;;2.10;;
31390;SDS011;18022;45.492;11.548;2022-09-09T01:38:28;4.55;;;1.70;;
31390;SDS011;18022;45.492;11.548;2022-09-09T01:40:56;6.72;;;2.38;;
31390;SDS011;18022;45.492;11.548;2022-09-09T01:43:23;3.25;;;2.05;;
31390;SDS011;18022;45.492;11.548;2022-09-09T01:45:51;2.70;;;1.90;;
31390;SDS011;18022;45.492;11.548;2022-09-09T01:48:20;3.72;;;1.67;;
31390;SDS011;18022;45.492;11.548;2022-09-09T01:50:48;9.10;;;2.30;;
31390;SDS011;18022;45.492;11.548;2022-09-09T01:53:14;6.38;;;3.15;;
31390;SDS011;18022;45.492;11.548;2022-09-09T01:58:16;7.80;;;2.70;;
31390;SDS011;18022;45.492;11.548;2022-09-09T02:01:14;10.90;;;3.35;;
31390;SDS011;18022;45.492;11.548;2022-09-09T02:04:02;10.90;;;2.90;;
31390;SDS011;18022;45.492;11.548;2022-09-09T02:06:42;8.40;;;3.03;;
31390;SDS011;18022;45.492;11.548;2022-09-09T02:09:10;4.57;;;2.70;;
31390;SDS011;18022;45.492;11.548;2022-09-09T02:11:38;10.57;;;3.15;;
31390;SDS011;18022;45.492;11.548;2022-09-09T02:14:14;6.97;;;2.80;;
31390;SDS011;18022;45.492;11.548;2022-09-09T02:16:44;3.63;;;2.30;;
31390;SDS011;18022;45.492;11.548;2022-09-09T02:19:20;5.50;;;2.72;;
31390;SDS011;18022;45.492;11.548;2022-09-09T02:21:53;8.70;;;2.65;;
31390;SDS011;18022;45.492;11.548;2022-09-09T02:24:21;8.45;;;2.80;;
31390;SDS011;18022;45.492;11.548;2022-09-09T02:26:48;5.40;;;2.88;;
31390;SDS011;18022;45.492;11.548;2022-09-09T02:29:22;5.65;;;2.92;;
31390;SDS011;18022;45.492;11.548;2022-09-09T02:31:51;7.70;;;3.05;;
31390;SDS011;18022;45.492;11.548;2022-09-09T02:34:20;4.80;;;2.80;;
31390;SDS011;18022;45.492;11.548;2022-09-09T02:36:49;6.57;;;2.63;;
31390;SDS011;18022;45.492;11.548;2022-09-09T02:39:18;8.98;;;2.80;;
31390;SDS011;18022;45.492;11.548;2022-09-09T02:41:44;5.00;;;2.35;;
31390;SDS011;18022;45.492;11.548;2022-09-09T02:44:11;5.38;;;2.70;;
31390;SDS011;18022;45.492;11.548;2022-09-09T02:52:35;6.85;;;2.33;;
31390;SDS011;18022;45.492;11.548;2022-09-09T02:54:59;5.82;;;2.83;;
31390;SDS011;18022;45.492;11.548;2022-09-09T02:57:31;5.43;;;2.50;;
31390;SDS011;18022;45.492;11.548;2022-09-09T03:02:25;7.20;;;2.53;;
31390;SDS011;18022;45.492;11.548;2022-09-09T03:04:51;8.13;;;2.70;;
31390;SDS011;18022;45.492;11.548;2022-09-09T03:07:20;6.53;;;2.92;;
31390;SDS011;18022;45.492;11.548;2022-09-09T03:09:46;7.07;;;2.50;;
31390;SDS011;18022;45.492;11.548;2022-09-09T03:12:12;7.75;;;2.80;;
31390;SDS011;18022;45.492;11.548;2022-09-09T03:14:38;6.32;;;2.50;;
31390;SDS011;18022;45.492;11.548;2022-09-09T03:17:04;5.63;;;2.58;;
31390;SDS011;18022;45.492;11.548;2022-09-09T03:19:30;7.07;;;2.67;;
31390;SDS011;18022;45.492;11.548;2022-09-09T03:21:57;7.65;;;2.53;;
31390;SDS011;18022;45.492;11.548;2022-09-09T03:24:23;6.00;;;2.72;;
31390;SDS011;18022;45.492;11.548;2022-09-09T03:26:49;5.60;;;2.42;;
31390;SDS011;18022;45.492;11.548;2022-09-09T03:29:15;10.77;;;2.33;;
31390;SDS011;18022;45.492;11.548;2022-09-09T03:31:42;5.13;;;2.63;;
31390;SDS011;18022;45.492;11.548;2022-09-09T03:34:08;8.50;;;1.98;;
31390;SDS011;18022;45.492;11.548;2022-09-09T03:36:33;8.43;;;2.03;;
31390;SDS011;18022;45.492;11.548;2022-09-09T03:38:59;5.38;;;2.08;;
31390;SDS011;18022;45.492;11.548;2022-09-09T03:41:25;3.92;;;2.20;;
31390;SDS011;18022;45.492;11.548;2022-09-09T03:43:52;3.60;;;2.28;;
31390;SDS011;18022;45.492;11.548;2022-09-09T03:46:19;6.63;;;2.10;;
31390;SDS011;18022;45.492;11.548;2022-09-09T03:48:46;7.13;;;2.30;;
31390;SDS011;18022;45.492;11.548;2022-09-09T03:51:12;4.22;;;2.45;;
31390;SDS011;18022;45.492;11.548;2022-09-09T03:53:38;3.92;;;2.47;;
31390;SDS011;18022;45.492;11.548;2022-09-09T03:56:04;4.25;;;2.50;;
31390;SDS011;18022;45.492;11.548;2022-09-09T03:58:32;5.75;;;2.40;;
31390;SDS011;18022;45.492;11.548;2022-09-09T04:03:25;6.60;;;2.87;;
31390;SDS011;18022;45.492;11.548;2022-09-09T04:05:52;10.55;;;2.72;;
31390;SDS011;18022;45.492;11.548;2022-09-09T04:08:20;3.85;;;2.70;;
31390;SDS011;18022;45.492;11.548;2022-09-09T04:10:46;2.75;;;2.20;;
31390;SDS011;18022;45.492;11.548;2022-09-09T04:13:13;5.45;;;2.45;;
31390;SDS011;18022;45.492;11.548;2022-09-09T04:15:41;6.00;;;3.08;;
31390;SDS011;18022;45.492;11.548;2022-09-09T04:18:08;6.78;;;2.50;;
31390;SDS011;18022;45.492;11.548;2022-09-09T04:20:34;5.78;;;2.63;;
31390;SDS011;18022;45.492;11.548;2022-09-09T04:23:00;4.40;;;2.72;;
31390;SDS011;18022;45.492;11.548;2022-09-09T04:25:26;3.22;;;2.42;;
31390;SDS011;18022;45.492;11.548;2022-09-09T04:27:55;3.15;;;2.30;;
31390;SDS011;18022;45.492;11.548;2022-09-09T04:30:22;6.40;;;2.35;;
31390;SDS011;18022;45.492;11.548;2022-09-09T04:32:48;4.95;;;2.30;;
31390;SDS011;18022;45.492;11.548;2022-09-09T04:35:14;5.18;;;2.30;;
31390;SDS011;18022;45.492;11.548;2022-09-09T04:37:40;6.20;;;2.22;;
31390;SDS011;18022;45.492;11.548;2022-09-09T04:40:06;5.75;;;2.17;;
31390;SDS011;18022;45.492;11.548;2022-09-09T04:42:37;3.40;;;2.35;;
31390;SDS011;18022;45.492;11.548;2022-09-09T04:45:04;7.53;;;2.15;;
31390;SDS011;18022;45.492;11.548;2022-09-09T04:47:31;2.75;;;2.50;;
31390;SDS011;18022;45.492;11.548;2022-09-09T04:49:56;3.10;;;2.25;;
31390;SDS011;18022;45.492;11.548;2022-09-09T04:52:22;4.80;;;2.72;;
31390;SDS011;18022;45.492;11.548;2022-09-09T04:54:48;4.10;;;2.40;;
31390;SDS011;18022;45.492;11.548;2022-09-09T04:57:13;8.52;;;3.13;;
31390;SDS011;18022;45.492;11.548;2022-09-09T04:59:39;4.72;;;2.80;;
31390;SDS011;18022;45.492;11.548;2022-09-09T05:02:05;3.45;;;2.80;;
31390;SDS011;18022;45.492;11.548;2022-09-09T05:04:31;3.90;;;2.63;;
31390;SDS011;18022;45.492;11.548;2022-09-09T05:06:58;3.78;;;2.50;;
31390;SDS011;18022;45.492;11.548;2022-09-09T05:09:24;3.55;;;2.60;;
31390;SDS011;18022;45.492;11.548;2022-09-09T05:11:49;5.05;;;3.30;;
31390;SDS011;18022;45.492;11.548;2022-09-09T05:14:16;4.40;;;2.63;;
31390;SDS011;18022;45.492;11.548;2022-09-09T05:16:42;4.38;;;2.42;;
31390;SDS011;18022;45.492;11.548;2022-09-09T05:21:35;5.13;;;2.58;;
31390;SDS011;18022;45.492;11.548;2022-09-09T05:24:01;5.18;;;2.60;;
31390;SDS011;18022;45.492;11.548;2022-09-09T05:26:26;5.65;;;3.50;;
31390;SDS011;18022;45.492;11.548;2022-09-09T05:28:54;6.18;;;2.90;;
31390;SDS011;18022;45.492;11.548;2022-09-09T05:31:20;7.18;;;2.50;;
31390;SDS011;18022;45.492;11.548;2022-09-09T05:33:46;7.22;;;3.00;;
31390;SDS011;18022;45.492;11.548;2022-09-09T05:38:43;6.93;;;2.67;;
31390;SDS011;18022;45.492;11.548;2022-09-09T05:41:10;5.90;;;2.60;;
31390;SDS011;18022;45.492;11.548;2022-09-09T05:43:37;7.50;;;2.92;;
31390;SDS011;18022;45.492;11.548;2022-09-09T05:48:33;3.55;;;2.47;;
31390;SDS011;18022;45.492;11.548;2022-09-09T05:51:02;3.65;;;2.40;;
31390;SDS011;18022;45.492;11.548;2022-09-09T05:53:29;4.07;;;2.72;;
31390;SDS011;18022;45.492;11.548;2022-09-09T05:56:06;5.18;;;2.70;;
31390;SDS011;18022;45.492;11.548;2022-09-09T05:58:35;9.60;;;2.70;;
31390;SDS011;18022;45.492;11.548;2022-09-09T06:01:02;8.52;;;2.90;;
31390;SDS011;18022;45.492;11.548;2022-09-09T06:03:29;6.57;;;3.20;;
31390;SDS011;18022;45.492;11.548;2022-09-09T06:06:01;5.30;;;2.50;;
31390;SDS011;18022;45.492;11.548;2022-09-09T06:08:35;4.93;;;2.45;;
31390;SDS011;18022;45.492;11.548;2022-09-09T06:11:04;4.63;;;2.33;;
31390;SDS011;18022;45.492;11.548;2022-09-09T06:13:31;3.80;;;2.30;;
31390;SDS011;18022;45.492;11.548;2022-09-09T06:15:57;5.35;;;2.55;;
31390;SDS011;18022;45.492;11.548;2022-09-09T06:18:23;3.30;;;2.63;;
31390;SDS011;18022;45.492;11.548;2022-09-09T06:20:56;2.65;;;2.38;;
31390;SDS011;18022;45.492;11.548;2022-09-09T06:23:23;4.75;;;2.60;;
31390;SDS011;18022;45.492;11.548;2022-09-09T06:25:50;11.10;;;2.53;;
31390;SDS011;18022;45.492;11.548;2022-09-09T06:28:17;4.70;;;2.60;;
31390;SDS011;18022;45.492;11.548;2022-09-09T06:30:44;7.28;;;2.35;;
31390;SDS011;18022;45.492;11.548;2022-09-09T06:33:10;7.75;;;2.78;;
31390;SDS011;18022;45.492;11.548;2022-09-09T06:35:35;5.43;;;2.83;;
31390;SDS011;18022;45.492;11.548;2022-09-09T06:38:01;8.27;;;2.70;;
31390;SDS011;18022;45.492;11.548;2022-09-09T06:40:28;7.18;;;2.80;;
31390;SDS011;18022;45.492;11.548;2022-09-09T06:42:58;7.57;;;2.90;;
31390;SDS011;18022;45.492;11.548;2022-09-09T06:45:25;5.45;;;2.33;;
31390;SDS011;18022;45.492;11.548;2022-09-09T06:47:50;7.00;;;2.63;;
31390;SDS011;18022;45.492;11.548;2022-09-09T06:50:19;6.25;;;2.60;;
31390;SDS011;18022;45.492;11.548;2022-09-09T06:52:46;6.75;;;3.28;;
31390;SDS011;18022;45.492;11.548;2022-09-09T06:55:13;8.45;;;2.60;;
31390;SDS011;18022;45.492;11.548;2022-09-09T06:57:40;6.43;;;3.05;;
31390;SDS011;18022;45.492;11.548;2022-09-09T07:00:06;3.60;;;2.83;;
31390;SDS011;18022;45.492;11.548;2022-09-09T07:02:32;4.43;;;2.75;;
31390;SDS011;18022;45.492;11.548;2022-09-09T07:05:03;6.90;;;3.20;;
31390;SDS011;18022;45.492;11.548;2022-09-09T07:07:29;5.63;;;2.90;;
31390;SDS011;18022;45.492;11.548;2022-09-09T07:09:55;4.97;;;3.10;;
31390;SDS011;18022;45.492;11.548;2022-09-09T07:12:21;6.70;;;3.42;;
31390;SDS011;18022;45.492;11.548;2022-09-09T07:14:47;6.47;;;3.15;;
31390;SDS011;18022;45.492;11.548;2022-09-09T07:17:12;8.38;;;4.22;;
31390;SDS011;18022;45.492;11.548;2022-09-09T07:19:38;6.63;;;3.22;;
31390;SDS011;18022;45.492;11.548;2022-09-09T07:22:04;8.55;;;3.25;;
31390;SDS011;18022;45.492;11.548;2022-09-09T07:24:31;9.13;;;3.17;;
31390;SDS011;18022;45.492;11.548;2022-09-09T07:26:56;3.50;;;3.20;;
31390;SDS011;18022;45.492;11.548;2022-09-09T07:29:22;7.03;;;3.05;;
31390;SDS011;18022;45.492;11.548;2022-09-09T07:31:48;5.55;;;3.65;;
31390;SDS011;18022;45.492;11.548;2022-09-09T07:34:13;4.93;;;3.42;;
31390;SDS011;18022;45.492;11.548;2022-09-09T07:36:39;6.60;;;3.65;;
31390;SDS011;18022;45.492;11.548;2022-09-09T07:41:35;8.38;;;3.22;;
31390;SDS011;18022;45.492;11.548;2022-09-09T07:44:10;8.07;;;3.78;;
31390;SDS011;18022;45.492;11.548;2022-09-09T07:46:37;9.55;;;3.67;;
31390;SDS011;18022;45.492;11.548;2022-09-09T07:49:04;6.30;;;3.33;;
31390;SDS011;18022;45.492;11.548;2022-09-09T07:51:35;5.75;;;3.25;;
31390;SDS011;18022;45.492;11.548;2022-09-09T07:54:03;5.55;;;3.35;;
31390;SDS011;18022;45.492;11.548;2022-09-09T07:56:30;4.30;;;3.03;;
31390;SDS011;18022;45.492;11.548;2022-09-09T07:58:57;9.65;;;3.05;;
31390;SDS011;18022;45.492;11.548;2022-09-09T08:01:29;7.15;;;3.22;;
31390;SDS011;18022;45.492;11.548;2022-09-09T08:06:27;4.10;;;3.03;;
31390;SDS011;18022;45.492;11.548;2022-09-09T08:09:13;7.30;;;3.47;;
31390;SDS011;18022;45.492;11.548;2022-09-09T08:11:40;7.57;;;3.03;;
31390;SDS011;18022;45.492;11.548;2022-09-09T08:14:07;6.70;;;3.55;;
31390;SDS011;18022;45.492;11.548;2022-09-09T08:19:01;8.70;;;3.28;;
31390;SDS011;18022;45.492;11.548;2022-09-09T08:21:29;5.82;;;3.20;;
31390;SDS011;18022;45.492;11.548;2022-09-09T08:23:57;10.77;;;3.20;;
31390;SDS011;18022;45.492;11.548;2022-09-09T08:26:30;6.85;;;3.17;;
31390;SDS011;18022;45.492;11.548;2022-09-09T08:28:59;6.30;;;3.17;;
31390;SDS011;18022;45.492;11.548;2022-09-09T08:31:30;7.03;;;2.90;;
31390;SDS011;18022;45.492;11.548;2022-09-09T08:33:58;6.43;;;3.05;;
31390;SDS011;18022;45.492;11.548;2022-09-09T08:36:27;4.95;;;3.20;;
31390;SDS011;18022;45.492;11.548;2022-09-09T08:38:55;7.18;;;3.33;;
31390;SDS011;18022;45.492;11.548;2022-09-09T08:44:18;7.57;;;3.47;;
31390;SDS011;18022;45.492;11.548;2022-09-09T08:52:42;5.88;;;2.65;;
31390;SDS011;18022;45.492;11.548;2022-09-09T08:58:17;6.88;;;2.85;;
31390;SDS011;18022;45.492;11.548;2022-09-09T09:09:31;7.60;;;3.15;;
31390;SDS011;18022;45.492;11.548;2022-09-09T09:12:21;7.88;;;3.03;;
31390;SDS011;18022;45.492;11.548;2022-09-09T09:14:49;8.25;;;3.15;;
31390;SDS011;18022;45.492;11.548;2022-09-09T09:17:18;4.68;;;3.17;;
31390;SDS011;18022;45.492;11.548;2022-09-09T09:19:46;4.85;;;2.72;;
31390;SDS011;18022;45.492;11.548;2022-09-09T09:25:19;5.72;;;3.20;;
31390;SDS011;18022;45.492;11.548;2022-09-09T09:27:58;10.40;;;2.80;;
31390;SDS011;18022;45.492;11.548;2022-09-09T09:30:26;3.40;;;2.80;;
31390;SDS011;18022;45.492;11.548;2022-09-09T09:35:25;11.55;;;3.05;;
31390;SDS011;18022;45.492;11.548;2022-09-09T09:37:51;4.07;;;2.50;;
31390;SDS011;18022;45.492;11.548;2022-09-09T09:40:18;4.63;;;2.78;;
31390;SDS011;18022;45.492;11.548;2022-09-09T09:48:13;8.52;;;2.83;;
31390;SDS011;18022;45.492;11.548;2022-09-09T09:50:52;5.22;;;2.90;;
31390;SDS011;18022;45.492;11.548;2022-09-09T09:53:25;8.90;;;2.78;;
31390;SDS011;18022;45.492;11.548;2022-09-09T10:01:26;12.43;;;2.90;;
31390;SDS011;18022;45.492;11.548;2022-09-09T10:03:57;8.57;;;2.72;;
31390;SDS011;18022;45.492;11.548;2022-09-09T10:06:34;4.13;;;2.67;;
31390;SDS011;18022;45.492;11.548;2022-09-09T10:09:24;3.35;;;1.95;;
31390;SDS011;18022;45.492;11.548;2022-09-09T10:14:39;5.65;;;2.10;;
31390;SDS011;18022;45.492;11.548;2022-09-09T10:22:45;4.10;;;1.90;;
31390;SDS011;18022;45.492;11.548;2022-09-09T10:36:23;4.10;;;2.10;;
31390;SDS011;18022;45.492;11.548;2022-09-09T10:41:34;3.50;;;1.80;;
31390;SDS011;18022;45.492;11.548;2022-09-09T10:57:31;7.60;;;2.20;;
31390;SDS011;18022;45.492;11.548;2022-09-09T11:00:05;4.78;;;1.60;;
31390;SDS011;18022;45.492;11.548;2022-09-09T11:02:38;2.88;;;1.65;;
31390;SDS011;18022;45.492;11.548;2022-09-09T11:05:09;6.10;;;2.15;;
31390;SDS011;18022;45.492;11.548;2022-09-09T11:07:56;8.68;;;1.85;;
31390;SDS011;18022;45.492;11.548;2022-09-09T11:12:54;7.93;;;1.90;;
31390;SDS011;18022;45.492;11.548;2022-09-09T11:15:46;3.03;;;2.03;;
31390;SDS011;18022;45.492;11.548;2022-09-09T11:18:19;2.28;;;1.73;;
31390;SDS011;18022;45.492;11.548;2022-09-09T11:20:48;6.50;;;1.50;;
31390;SDS011;18022;45.492;11.548;2022-09-09T11:23:32;2.22;;;1.67;;
31390;SDS011;18022;45.492;11.548;2022-09-09T11:26:04;6.00;;;1.88;;
31390;SDS011;18022;45.492;11.548;2022-09-09T11:34:08;2.80;;;1.50;;
31390;SDS011;18022;45.492;11.548;2022-09-09T11:37:23;3.28;;;1.73;;
31390;SDS011;18022;45.492;11.548;2022-09-09T11:42:26;2.83;;;1.50;;
31390;SDS011;18022;45.492;11.548;2022-09-09T11:44:51;10.00;;;1.23;;
31390;SDS011;18022;45.492;11.548;2022-09-09T11:47:23;3.78;;;1.83;;
31390;SDS011;18022;45.492;11.548;2022-09-09T11:49:54;3.08;;;1.30;;
31390;SDS011;18022;45.492;11.548;2022-09-09T11:52:39;3.80;;;1.10;;
31390;SDS011;18022;45.492;11.548;2022-09-09T11:55:24;6.10;;;1.42;;
31390;SDS011;18022;45.492;11.548;2022-09-09T12:00:32;2.75;;;1.30;;
31390;SDS011;18022;45.492;11.548;2022-09-09T12:03:10;3.17;;;1.00;;
31390;SDS011;18022;45.492;11.548;2022-09-09T12:06:31;1.50;;;1.00;;
31390;SDS011;18022;45.492;11.548;2022-09-09T12:09:29;3.75;;;0.80;;
31390;SDS011;18022;45.492;11.548;2022-09-09T12:12:21;2.15;;;0.90;;
31390;SDS011;18022;45.492;11.548;2022-09-09T12:14:59;4.28;;;1.02;;
31390;SDS011;18022;45.492;11.548;2022-09-09T12:17:29;2.55;;;1.35;;
31390;SDS011;18022;45.492;11.548;2022-09-09T12:20:16;2.08;;;1.08;;
31390;SDS011;18022;45.492;11.548;2022-09-09T12:31:40;2.55;;;0.95;;
31390;SDS011;18022;45.492;11.548;2022-09-09T12:39:53;2.58;;;0.80;;
31390;SDS011;18022;45.492;11.548;2022-09-09T12:42:24;1.00;;;0.80;;
31390;SDS011;18022;45.492;11.548;2022-09-09T12:44:55;2.33;;;0.90;;
31390;SDS011;18022;45.492;11.548;2022-09-09T12:50:03;3.95;;;0.85;;
31390;SDS011;18022;45.492;11.548;2022-09-09T12:52:32;4.47;;;1.02;;
31390;SDS011;18022;45.492;11.548;2022-09-09T12:55:03;2.17;;;1.23;;
31390;SDS011;18022;45.492;11.548;2022-09-09T12:57:33;2.35;;;0.80;;
31390;SDS011;18022;45.492;11.548;2022-09-09T13:00:12;1.17;;;1.00;;
31390;SDS011;18022;45.492;11.548;2022-09-09T13:02:49;1.65;;;0.90;;
31390;SDS011;18022;45.492;11.548;2022-09-09T13:07:47;4.00;;;1.20;;
31390;SDS011;18022;45.492;11.548;2022-09-09T13:10:14;2.92;;;0.73;;
31390;SDS011;18022;45.492;11.548;2022-09-09T13:12:45;2.92;;;0.70;;
31390;SDS011;18022;45.492;11.548;2022-09-09T13:15:14;1.27;;;0.70;;
31390;SDS011;18022;45.492;11.548;2022-09-09T13:17:54;1.38;;;0.95;;
31390;SDS011;18022;45.492;11.548;2022-09-09T13:20:22;3.15;;;0.90;;
31390;SDS011;18022;45.492;11.548;2022-09-09T13:22:50;2.80;;;0.77;;
31390;SDS011;18022;45.492;11.548;2022-09-09T13:38:14;3.17;;;0.85;;
31390;SDS011;18022;45.492;11.548;2022-09-09T13:40:40;3.10;;;1.00;;
31390;SDS011;18022;45.492;11.548;2022-09-09T13:43:18;3.80;;;1.20;;
31390;SDS011;18022;45.492;11.548;2022-09-09T13:45:54;1.65;;;0.90;;
31390;SDS011;18022;45.492;11.548;2022-09-09T13:48:25;4.18;;;1.23;;
31390;SDS011;18022;45.492;11.548;2022-09-09T13:50:55;2.47;;;0.93;;
31390;SDS011;18022;45.492;11.548;2022-09-09T13:53:23;1.63;;;0.85;;
31390;SDS011;18022;45.492;11.548;2022-09-09T13:55:48;1.38;;;0.82;;
31390;SDS011;18022;45.492;11.548;2022-09-09T13:58:16;2.15;;;1.13;;
31390;SDS011;18022;45.492;11.548;2022-09-09T14:00:44;2.75;;;1.50;;
31390;SDS011;18022;45.492;11.548;2022-09-09T14:03:10;6.00;;;1.27;;
31390;SDS011;18022;45.492;11.548;2022-09-09T14:05:36;2.90;;;1.20;;
31390;SDS011;18022;45.492;11.548;2022-09-09T14:08:06;2.75;;;0.73;;
31390;SDS011;18022;45.492;11.548;2022-09-09T14:10:35;2.72;;;1.00;;
31390;SDS011;18022;45.492;11.548;2022-09-09T14:13:02;1.27;;;0.95;;
31390;SDS011;18022;45.492;11.548;2022-09-09T14:15:28;2.47;;;1.20;;
31390;SDS011;18022;45.492;11.548;2022-09-09T14:17:54;2.42;;;0.88;;
31390;SDS011;18022;45.492;11.548;2022-09-09T14:20:20;5.68;;;1.80;;
31390;SDS011;18022;45.492;11.548;2022-09-09T14:22:46;1.15;;;0.80;;
31390;SDS011;18022;45.492;11.548;2022-09-09T14:25:11;2.08;;;0.93;;
31390;SDS011;18022;45.492;11.548;2022-09-09T14:27:40;3.60;;;1.20;;
31390;SDS011;18022;45.492;11.548;2022-09-09T14:30:07;2.97;;;0.80;;
31390;SDS011;18022;45.492;11.548;2022-09-09T14:32:33;2.38;;;1.10;;
31390;SDS011;18022;45.492;11.548;2022-09-09T14:34:59;1.02;;;0.70;;
31390;SDS011;18022;45.492;11.548;2022-09-09T14:37:25;1.02;;;0.77;;
31390;SDS011;18022;45.492;11.548;2022-09-09T14:39:51;2.90;;;0.80;;
31390;SDS011;18022;45.492;11.548;2022-09-09T14:42:18;1.35;;;0.70;;
31390;SDS011;18022;45.492;11.548;2022-09-09T14:44:44;0.85;;;0.70;;
31390;SDS011;18022;45.492;11.548;2022-09-09T14:47:10;1.40;;;0.68;;
31390;SDS011;18022;45.492;11.548;2022-09-09T14:49:35;1.20;;;0.63;;
31390;SDS011;18022;45.492;11.548;2022-09-09T14:52:02;2.05;;;0.75;;
31390;SDS011;18022;45.492;11.548;2022-09-09T14:54:28;0.73;;;0.60;;
31390;SDS011;18022;45.492;11.548;2022-09-09T14:56:54;0.70;;;0.50;;
31390;SDS011;18022;45.492;11.548;2022-09-09T14:59:22;2.15;;;0.65;;
31390;SDS011;18022;45.492;11.548;2022-09-09T15:01:47;2.78;;;0.50;;
31390;SDS011;18022;45.492;11.548;2022-09-09T15:04:13;1.17;;;0.55;;
31390;SDS011;18022;45.492;11.548;2022-09-09T15:06:43;1.17;;;0.50;;
31390;SDS011;18022;45.492;11.548;2022-09-09T15:09:13;2.00;;;0.60;;
31390;SDS011;18022;45.492;11.548;2022-09-09T15:11:39;2.20;;;0.70;;
31390;SDS011;18022;45.492;11.548;2022-09-09T15:14:05;0.95;;;0.50;;
31390;SDS011;18022;45.492;11.548;2022-09-09T15:16:32;1.02;;;0.70;;
31390;SDS011;18022;45.492;11.548;2022-09-09T15:18:59;10.77;;;0.68;;
31390;SDS011;18022;45.492;11.548;2022-09-09T15:21:27;1.65;;;0.73;;
31390;SDS011;18022;45.492;11.548;2022-09-09T15:23:54;3.58;;;0.70;;
31390;SDS011;18022;45.492;11.548;2022-09-09T15:26:20;0.77;;;0.70;;
31390;SDS011;18022;45.492;11.548;2022-09-09T15:28:46;1.65;;;0.55;;
31390;SDS011;18022;45.492;11.548;2022-09-09T15:31:14;1.55;;;0.60;;
31390;SDS011;18022;45.492;11.548;2022-09-09T15:33:48;0.85;;;0.60;;
31390;SDS011;18022;45.492;11.548;2022-09-09T15:36:20;2.63;;;0.90;;
31390;SDS011;18022;45.492;11.548;2022-09-09T15:38:51;2.45;;;0.68;;
31390;SDS011;18022;45.492;11.548;2022-09-09T15:41:18;1.50;;;0.50;;
31390;SDS011;18022;45.492;11.548;2022-09-09T15:48:58;2.00;;;0.70;;
31390;SDS011;18022;45.492;11.548;2022-09-09T15:51:54;3.13;;;0.85;;
31390;SDS011;18022;45.492;11.548;2022-09-09T15:54:22;1.98;;;0.70;;
31390;SDS011;18022;45.492;11.548;2022-09-09T15:56:50;1.00;;;0.90;;
31390;SDS011;18022;45.492;11.548;2022-09-09T15:59:17;2.42;;;0.70;;
31390;SDS011;18022;45.492;11.548;2022-09-09T16:01:43;1.98;;;0.88;;
31390;SDS011;18022;45.492;11.548;2022-09-09T16:04:09;4.10;;;1.00;;
31390;SDS011;18022;45.492;11.548;2022-09-09T16:06:34;3.20;;;1.35;;
31390;SDS011;18022;45.492;11.548;2022-09-09T16:09:02;1.33;;;1.17;;
31390;SDS011;18022;45.492;11.548;2022-09-09T16:11:31;3.05;;;0.90;;
31390;SDS011;18022;45.492;11.548;2022-09-09T16:13:58;2.60;;;0.75;;
31390;SDS011;18022;45.492;11.548;2022-09-09T16:16:26;6.13;;;1.55;;
31390;SDS011;18022;45.492;11.548;2022-09-09T16:18:54;1.63;;;1.30;;
31390;SDS011;18022;45.492;11.548;2022-09-09T16:21:25;2.80;;;1.30;;
31390;SDS011;18022;45.492;11.548;2022-09-09T16:23:56;3.83;;;1.35;;
31390;SDS011;18022;45.492;11.548;2022-09-09T16:26:24;4.13;;;1.52;;
31390;SDS011;18022;45.492;11.548;2022-09-09T16:28:50;4.68;;;1.10;;
31390;SDS011;18022;45.492;11.548;2022-09-09T16:31:19;2.40;;;1.35;;
31390;SDS011;18022;45.492;11.548;2022-09-09T16:33:46;3.15;;;1.25;;
31390;SDS011;18022;45.492;11.548;2022-09-09T16:36:14;2.58;;;1.10;;
31390;SDS011;18022;45.492;11.548;2022-09-09T16:38:41;4.30;;;1.30;;
31390;SDS011;18022;45.492;11.548;2022-09-09T16:41:08;2.35;;;1.33;;
31390;SDS011;18022;45.492;11.548;2022-09-09T16:43:35;3.17;;;1.30;;
31390;SDS011;18022;45.492;11.548;2022-09-09T16:46:02;2.87;;;1.60;;
31390;SDS011;18022;45.492;11.548;2022-09-09T16:48:35;3.28;;;1.30;;
31390;SDS011;18022;45.492;11.548;2022-09-09T16:51:04;1.48;;;1.15;;
31390;SDS011;18022;45.492;11.548;2022-09-09T16:53:31;2.97;;;1.48;;
31390;SDS011;18022;45.492;11.548;2022-09-09T16:55:57;3.38;;;1.23;;
31390;SDS011;18022;45.492;11.548;2022-09-09T16:58:23;3.25;;;1.30;;
31390;SDS011;18022;45.492;11.548;2022-09-09T17:00:49;4.53;;;1.58;;
31390;SDS011;18022;45.492;11.548;2022-09-09T17:03:16;3.55;;;1.42;;
31390;SDS011;18022;45.492;11.548;2022-09-09T17:05:42;3.95;;;1.23;;
31390;SDS011;18022;45.492;11.548;2022-09-09T17:08:08;3.03;;;1.40;;
31390;SDS011;18022;45.492;11.548;2022-09-09T17:10:34;1.40;;;1.30;;
31390;SDS011;18022;45.492;11.548;2022-09-09T17:13:04;2.00;;;1.30;;
31390;SDS011;18022;45.492;11.548;2022-09-09T17:15:30;6.65;;;1.50;;
31390;SDS011;18022;45.492;11.548;2022-09-09T17:17:56;2.33;;;1.50;;
31390;SDS011;18022;45.492;11.548;2022-09-09T17:20:21;2.33;;;1.27;;
31390;SDS011;18022;45.492;11.548;2022-09-09T17:22:47;3.00;;;1.27;;
31390;SDS011;18022;45.492;11.548;2022-09-09T17:25:14;3.57;;;1.30;;
31390;SDS011;18022;45.492;11.548;2022-09-09T17:27:39;1.77;;;1.15;;
31390;SDS011;18022;45.492;11.548;2022-09-09T17:30:05;2.15;;;1.10;;
31390;SDS011;18022;45.492;11.548;2022-09-09T17:32:31;4.20;;;0.90;;
31390;SDS011;18022;45.492;11.548;2022-09-09T17:34:57;3.72;;;0.90;;
31390;SDS011;18022;45.492;11.548;2022-09-09T17:37:23;3.40;;;1.00;;
31390;SDS011;18022;45.492;11.548;2022-09-09T17:39:48;1.38;;;0.90;;
31390;SDS011;18022;45.492;11.548;2022-09-09T17:42:14;4.25;;;1.25;;
31390;SDS011;18022;45.492;11.548;2022-09-09T17:44:40;5.18;;;0.88;;
31390;SDS011;18022;45.492;11.548;2022-09-09T17:47:06;3.70;;;1.85;;
31390;SDS011;18022;45.492;11.548;2022-09-09T17:49:32;2.72;;;1.10;;
31390;SDS011;18022;45.492;11.548;2022-09-09T17:51:58;4.97;;;1.10;;
31390;SDS011;18022;45.492;11.548;2022-09-09T17:54:24;11.18;;;1.35;;
31390;SDS011;18022;45.492;11.548;2022-09-09T17:56:49;2.88;;;1.20;;
31390;SDS011;18022;45.492;11.548;2022-09-09T17:59:16;3.92;;;1.63;;
31390;SDS011;18022;45.492;11.548;2022-09-09T18:01:44;6.88;;;1.27;;
31390;SDS011;18022;45.492;11.548;2022-09-09T18:04:11;2.75;;;1.00;;
31390;SDS011;18022;45.492;11.548;2022-09-09T18:06:39;4.10;;;1.40;;
31390;SDS011;18022;45.492;11.548;2022-09-09T18:09:08;3.05;;;1.23;;
31390;SDS011;18022;45.492;11.548;2022-09-09T18:11:38;3.10;;;1.42;;